sensor_id;sensor_type;location;lat;lon;timestamp;P1;durP1;ratioP1;P2;durP2;ratioP2
24650;SDS011;12783;48.824;8.662;2023-09-18T00:00:25;2.83;;;1.70;;
24650;SDS011;12783;48.824;8.662;2023-09-18T00:02:52;6.30;;;1.95;;
24650;SDS011;12783;48.824;8.662;2023-09-18T00:05:19;6.90;;;1.60;;
24650;SDS011;12783;48.824;8.662;2023-09-18T00:07:46;7.07;;;1.58;;
24650;SDS011;12783;48.824;8.662;2023-09-18T00:10:13;5.15;;;1.73;;
24650;SDS011;12783;48.824;8.662;2023-09-18T00:12:40;3.58;;;1.60;;
24650;SDS011;12783;48.824;8.662;2023-09-18T00:15:07;2.38;;;1.40;;
24650;SDS011;12783;48.824;8.662;2023-09-18T00:17:38;5.43;;;2.15;;
24650;SDS011;12783;48.824;8.662;2023-09-18T00:20:05;3.88;;;1.50;;
24650;SDS011;12783;48.824;8.662;2023-09-18T00:22:33;7.45;;;1.67;;
24650;SDS011;12783;48.824;8.662;2023-09-18T00:25:00;5.53;;;1.55;;
24650;SDS011;12783;48.824;8.662;2023-09-18T00:27:30;5.85;;;1.80;;
24650;SDS011;12783;48.824;8.662;2023-09-18T00:29:59;6.30;;;1.58;;
24650;SDS011;12783;48.824;8.662;2023-09-18T00:32:25;3.97;;;1.50;;
24650;SDS011;12783;48.824;8.662;2023-09-18T00:34:54;5.25;;;1.65;;
24650;SDS011;12783;48.824;8.662;2023-09-18T00:37:22;4.40;;;2.00;;
24650;SDS011;12783;48.824;8.662;2023-09-18T00:39:49;6.13;;;1.60;;
24650;SDS011;12783;48.824;8.662;2023-09-18T00:42:16;4.72;;;1.88;;
24650;SDS011;12783;48.824;8.662;2023-09-18T00:44:44;5.50;;;1.60;;
24650;SDS011;12783;48.824;8.662;2023-09-18T00:47:11;4.88;;;1.70;;
24650;SDS011;12783;48.824;8.662;2023-09-18T00:49:40;5.18;;;1.45;;
24650;SDS011;12783;48.824;8.662;2023-09-18T00:52:11;3.80;;;1.55;;
24650;SDS011;12783;48.824;8.662;2023-09-18T00:54:38;5.10;;;1.48;;
24650;SDS011;12783;48.824;8.662;2023-09-18T00:57:08;5.25;;;1.85;;
24650;SDS011;12783;48.824;8.662;2023-09-18T00:59:38;6.80;;;1.80;;
24650;SDS011;12783;48.824;8.662;2023-09-18T01:02:05;5.25;;;1.70;;
24650;SDS011;12783;48.824;8.662;2023-09-18T01:04:33;5.13;;;1.67;;
24650;SDS011;12783;48.824;8.662;2023-09-18T01:07:00;2.25;;;1.50;;
24650;SDS011;12783;48.824;8.662;2023-09-18T01:09:31;3.67;;;1.50;;
24650;SDS011;12783;48.824;8.662;2023-09-18T01:14:31;5.88;;;1.38;;
24650;SDS011;12783;48.824;8.662;2023-09-18T01:17:10;4.07;;;1.50;;
24650;SDS011;12783;48.824;8.662;2023-09-18T01:19:41;8.00;;;1.70;;
24650;SDS011;12783;48.824;8.662;2023-09-18T01:22:14;4.03;;;1.50;;
24650;SDS011;12783;48.824;8.662;2023-09-18T01:24:46;4.43;;;1.70;;
24650;SDS011;12783;48.824;8.662;2023-09-18T01:27:14;3.85;;;1.40;;
24650;SDS011;12783;48.824;8.662;2023-09-18T01:29:46;5.97;;;1.60;;
24650;SDS011;12783;48.824;8.662;2023-09-18T01:32:15;5.50;;;1.58;;
24650;SDS011;12783;48.824;8.662;2023-09-18T01:34:42;2.83;;;1.50;;
24650;SDS011;12783;48.824;8.662;2023-09-18T01:37:21;3.15;;;1.50;;
24650;SDS011;12783;48.824;8.662;2023-09-18T01:39:52;5.32;;;1.60;;
24650;SDS011;12783;48.824;8.662;2023-09-18T01:42:21;4.72;;;1.75;;
24650;SDS011;12783;48.824;8.662;2023-09-18T01:44:48;3.70;;;1.60;;
24650;SDS011;12783;48.824;8.662;2023-09-18T01:47:16;8.73;;;1.95;;
24650;SDS011;12783;48.824;8.662;2023-09-18T01:49:45;7.15;;;2.00;;
24650;SDS011;12783;48.824;8.662;2023-09-18T01:52:12;5.50;;;2.03;;
24650;SDS011;12783;48.824;8.662;2023-09-18T01:54:39;5.15;;;1.90;;
24650;SDS011;12783;48.824;8.662;2023-09-18T01:57:06;6.03;;;1.80;;
24650;SDS011;12783;48.824;8.662;2023-09-18T01:59:34;11.57;;;2.00;;
24650;SDS011;12783;48.824;8.662;2023-09-18T02:02:02;4.72;;;1.55;;
24650;SDS011;12783;48.824;8.662;2023-09-18T02:04:33;7.72;;;2.05;;
24650;SDS011;12783;48.824;8.662;2023-09-18T02:07:20;11.27;;;2.00;;
24650;SDS011;12783;48.824;8.662;2023-09-18T02:09:47;10.18;;;2.38;;
24650;SDS011;12783;48.824;8.662;2023-09-18T02:12:14;9.63;;;2.22;;
24650;SDS011;12783;48.824;8.662;2023-09-18T02:14:44;10.90;;;1.92;;
24650;SDS011;12783;48.824;8.662;2023-09-18T02:17:11;6.85;;;1.98;;
24650;SDS011;12783;48.824;8.662;2023-09-18T02:19:38;8.45;;;1.65;;
24650;SDS011;12783;48.824;8.662;2023-09-18T02:22:05;6.55;;;1.88;;
24650;SDS011;12783;48.824;8.662;2023-09-18T02:24:33;13.48;;;2.15;;
24650;SDS011;12783;48.824;8.662;2023-09-18T02:27:00;5.90;;;1.77;;
24650;SDS011;12783;48.824;8.662;2023-09-18T02:29:30;8.00;;;2.10;;
24650;SDS011;12783;48.824;8.662;2023-09-18T02:31:57;9.20;;;2.03;;
24650;SDS011;12783;48.824;8.662;2023-09-18T02:34:24;6.15;;;1.90;;
24650;SDS011;12783;48.824;8.662;2023-09-18T02:36:51;10.85;;;2.17;;
24650;SDS011;12783;48.824;8.662;2023-09-18T02:39:18;19.42;;;2.20;;
24650;SDS011;12783;48.824;8.662;2023-09-18T02:41:45;11.23;;;2.03;;
24650;SDS011;12783;48.824;8.662;2023-09-18T02:44:12;14.30;;;2.20;;
24650;SDS011;12783;48.824;8.662;2023-09-18T02:46:39;10.98;;;1.73;;
24650;SDS011;12783;48.824;8.662;2023-09-18T02:49:09;5.32;;;1.67;;
24650;SDS011;12783;48.824;8.662;2023-09-18T02:51:36;10.73;;;2.42;;
24650;SDS011;12783;48.824;8.662;2023-09-18T02:54:03;14.00;;;2.47;;
24650;SDS011;12783;48.824;8.662;2023-09-18T02:56:30;7.75;;;2.15;;
24650;SDS011;12783;48.824;8.662;2023-09-18T02:58:57;8.52;;;2.13;;
24650;SDS011;12783;48.824;8.662;2023-09-18T03:01:24;7.30;;;2.33;;
24650;SDS011;12783;48.824;8.662;2023-09-18T03:03:51;9.27;;;1.98;;
24650;SDS011;12783;48.824;8.662;2023-09-18T03:06:18;5.97;;;1.70;;
24650;SDS011;12783;48.824;8.662;2023-09-18T03:08:45;7.68;;;2.22;;
24650;SDS011;12783;48.824;8.662;2023-09-18T03:11:12;8.02;;;1.70;;
24650;SDS011;12783;48.824;8.662;2023-09-18T03:13:44;11.68;;;3.00;;
24650;SDS011;12783;48.824;8.662;2023-09-18T03:16:13;10.95;;;2.30;;
24650;SDS011;12783;48.824;8.662;2023-09-18T03:18:40;15.00;;;2.67;;
24650;SDS011;12783;48.824;8.662;2023-09-18T03:21:07;10.68;;;2.60;;
24650;SDS011;12783;48.824;8.662;2023-09-18T03:23:34;12.00;;;2.55;;
24650;SDS011;12783;48.824;8.662;2023-09-18T03:26:02;16.55;;;3.03;;
24650;SDS011;12783;48.824;8.662;2023-09-18T03:28:29;18.90;;;2.95;;
24650;SDS011;12783;48.824;8.662;2023-09-18T03:30:57;6.72;;;2.50;;
24650;SDS011;12783;48.824;8.662;2023-09-18T03:33:24;15.48;;;2.75;;
24650;SDS011;12783;48.824;8.662;2023-09-18T03:35:52;13.73;;;2.70;;
24650;SDS011;12783;48.824;8.662;2023-09-18T03:38:21;20.33;;;2.95;;
24650;SDS011;12783;48.824;8.662;2023-09-18T03:40:48;12.93;;;2.65;;
24650;SDS011;12783;48.824;8.662;2023-09-18T03:43:16;11.65;;;2.50;;
24650;SDS011;12783;48.824;8.662;2023-09-18T03:45:44;18.20;;;2.83;;
24650;SDS011;12783;48.824;8.662;2023-09-18T03:48:10;10.52;;;2.35;;
24650;SDS011;12783;48.824;8.662;2023-09-18T03:50:38;23.48;;;2.40;;
24650;SDS011;12783;48.824;8.662;2023-09-18T03:53:06;10.27;;;2.40;;
24650;SDS011;12783;48.824;8.662;2023-09-18T03:55:33;12.60;;;2.30;;
24650;SDS011;12783;48.824;8.662;2023-09-18T03:58:00;14.70;;;2.30;;
24650;SDS011;12783;48.824;8.662;2023-09-18T04:00:27;12.75;;;1.90;;
24650;SDS011;12783;48.824;8.662;2023-09-18T04:02:54;9.02;;;2.10;;
24650;SDS011;12783;48.824;8.662;2023-09-18T04:05:21;6.80;;;1.60;;
24650;SDS011;12783;48.824;8.662;2023-09-18T04:07:49;9.48;;;1.90;;
24650;SDS011;12783;48.824;8.662;2023-09-18T04:10:16;13.18;;;1.60;;
24650;SDS011;12783;48.824;8.662;2023-09-18T04:12:50;6.18;;;1.98;;
24650;SDS011;12783;48.824;8.662;2023-09-18T04:15:18;8.30;;;1.70;;
24650;SDS011;12783;48.824;8.662;2023-09-18T04:17:46;7.35;;;1.92;;
24650;SDS011;12783;48.824;8.662;2023-09-18T04:20:14;11.50;;;1.95;;
24650;SDS011;12783;48.824;8.662;2023-09-18T04:22:45;6.07;;;1.88;;
24650;SDS011;12783;48.824;8.662;2023-09-18T04:25:17;7.07;;;1.90;;
24650;SDS011;12783;48.824;8.662;2023-09-18T04:27:46;7.75;;;1.67;;
24650;SDS011;12783;48.824;8.662;2023-09-18T04:30:16;8.27;;;1.75;;
24650;SDS011;12783;48.824;8.662;2023-09-18T04:32:46;9.30;;;2.00;;
24650;SDS011;12783;48.824;8.662;2023-09-18T04:35:13;8.73;;;1.50;;
24650;SDS011;12783;48.824;8.662;2023-09-18T04:37:40;7.90;;;1.55;;
24650;SDS011;12783;48.824;8.662;2023-09-18T04:40:07;13.32;;;1.80;;
24650;SDS011;12783;48.824;8.662;2023-09-18T04:42:38;6.97;;;1.92;;
24650;SDS011;12783;48.824;8.662;2023-09-18T04:45:06;6.93;;;1.50;;
24650;SDS011;12783;48.824;8.662;2023-09-18T04:47:34;7.60;;;1.75;;
24650;SDS011;12783;48.824;8.662;2023-09-18T04:50:02;6.97;;;2.20;;
24650;SDS011;12783;48.824;8.662;2023-09-18T04:52:38;3.92;;;1.50;;
24650;SDS011;12783;48.824;8.662;2023-09-18T04:55:06;6.65;;;1.55;;
24650;SDS011;12783;48.824;8.662;2023-09-18T04:57:34;6.43;;;1.70;;
24650;SDS011;12783;48.824;8.662;2023-09-18T05:00:02;3.13;;;1.20;;
24650;SDS011;12783;48.824;8.662;2023-09-18T05:02:43;7.93;;;1.88;;
24650;SDS011;12783;48.824;8.662;2023-09-18T05:05:11;6.50;;;1.60;;
24650;SDS011;12783;48.824;8.662;2023-09-18T05:07:39;12.77;;;2.05;;
24650;SDS011;12783;48.824;8.662;2023-09-18T05:10:06;7.93;;;1.85;;
24650;SDS011;12783;48.824;8.662;2023-09-18T05:12:34;10.88;;;1.80;;
24650;SDS011;12783;48.824;8.662;2023-09-18T05:15:00;14.60;;;2.03;;
24650;SDS011;12783;48.824;8.662;2023-09-18T05:17:41;6.03;;;1.67;;
24650;SDS011;12783;48.824;8.662;2023-09-18T05:20:11;7.63;;;1.52;;
24650;SDS011;12783;48.824;8.662;2023-09-18T05:22:44;8.13;;;1.92;;
24650;SDS011;12783;48.824;8.662;2023-09-18T05:25:12;6.72;;;1.58;;
24650;SDS011;12783;48.824;8.662;2023-09-18T05:27:41;7.18;;;1.55;;
24650;SDS011;12783;48.824;8.662;2023-09-18T05:30:18;4.90;;;1.60;;
24650;SDS011;12783;48.824;8.662;2023-09-18T05:32:49;6.55;;;1.40;;
24650;SDS011;12783;48.824;8.662;2023-09-18T05:35:16;4.30;;;1.48;;
24650;SDS011;12783;48.824;8.662;2023-09-18T05:37:43;6.22;;;1.35;;
24650;SDS011;12783;48.824;8.662;2023-09-18T05:40:11;6.30;;;1.38;;
24650;SDS011;12783;48.824;8.662;2023-09-18T05:42:40;8.60;;;1.77;;
24650;SDS011;12783;48.824;8.662;2023-09-18T05:45:10;8.32;;;1.30;;
24650;SDS011;12783;48.824;8.662;2023-09-18T05:47:43;5.53;;;1.60;;
24650;SDS011;12783;48.824;8.662;2023-09-18T05:50:11;5.55;;;1.38;;
24650;SDS011;12783;48.824;8.662;2023-09-18T05:52:42;8.63;;;1.27;;
24650;SDS011;12783;48.824;8.662;2023-09-18T05:55:10;3.15;;;1.20;;
24650;SDS011;12783;48.824;8.662;2023-09-18T05:57:38;6.32;;;1.08;;
24650;SDS011;12783;48.824;8.662;2023-09-18T06:00:05;5.90;;;1.50;;
24650;SDS011;12783;48.824;8.662;2023-09-18T06:02:33;5.10;;;1.20;;
24650;SDS011;12783;48.824;8.662;2023-09-18T06:05:00;6.70;;;1.40;;
24650;SDS011;12783;48.824;8.662;2023-09-18T06:07:32;4.60;;;1.10;;
24650;SDS011;12783;48.824;8.662;2023-09-18T06:09:59;7.90;;;1.80;;
24650;SDS011;12783;48.824;8.662;2023-09-18T06:12:26;5.78;;;1.20;;
24650;SDS011;12783;48.824;8.662;2023-09-18T06:14:53;7.75;;;1.55;;
24650;SDS011;12783;48.824;8.662;2023-09-18T06:17:20;5.70;;;1.25;;
24650;SDS011;12783;48.824;8.662;2023-09-18T06:19:47;5.47;;;1.17;;
24650;SDS011;12783;48.824;8.662;2023-09-18T06:22:14;4.57;;;1.23;;
24650;SDS011;12783;48.824;8.662;2023-09-18T06:24:41;7.68;;;1.35;;
24650;SDS011;12783;48.824;8.662;2023-09-18T06:27:09;4.95;;;1.08;;
24650;SDS011;12783;48.824;8.662;2023-09-18T06:29:37;3.10;;;0.95;;
24650;SDS011;12783;48.824;8.662;2023-09-18T06:32:05;3.17;;;1.08;;
24650;SDS011;12783;48.824;8.662;2023-09-18T06:34:33;4.53;;;1.00;;
24650;SDS011;12783;48.824;8.662;2023-09-18T06:37:00;3.53;;;1.10;;
24650;SDS011;12783;48.824;8.662;2023-09-18T06:39:27;5.68;;;1.40;;
24650;SDS011;12783;48.824;8.662;2023-09-18T06:41:54;5.80;;;1.23;;
24650;SDS011;12783;48.824;8.662;2023-09-18T06:44:21;4.35;;;1.38;;
24650;SDS011;12783;48.824;8.662;2023-09-18T06:46:49;5.72;;;1.00;;
24650;SDS011;12783;48.824;8.662;2023-09-18T06:49:16;2.72;;;0.80;;
24650;SDS011;12783;48.824;8.662;2023-09-18T06:51:46;2.92;;;0.80;;
24650;SDS011;12783;48.824;8.662;2023-09-18T06:54:13;3.53;;;0.63;;
24650;SDS011;12783;48.824;8.662;2023-09-18T06:56:40;3.17;;;0.93;;
24650;SDS011;12783;48.824;8.662;2023-09-18T06:59:08;2.45;;;0.77;;
24650;SDS011;12783;48.824;8.662;2023-09-18T07:01:35;4.10;;;0.88;;
24650;SDS011;12783;48.824;8.662;2023-09-18T07:04:02;0.98;;;0.70;;
24650;SDS011;12783;48.824;8.662;2023-09-18T07:06:30;2.22;;;0.80;;
24650;SDS011;12783;48.824;8.662;2023-09-18T07:08:57;1.73;;;0.80;;
24650;SDS011;12783;48.824;8.662;2023-09-18T07:11:25;1.52;;;0.60;;
24650;SDS011;12783;48.824;8.662;2023-09-18T07:13:52;3.78;;;0.70;;
24650;SDS011;12783;48.824;8.662;2023-09-18T07:16:20;1.85;;;0.75;;
24650;SDS011;12783;48.824;8.662;2023-09-18T07:18:46;2.08;;;0.70;;
24650;SDS011;12783;48.824;8.662;2023-09-18T07:21:13;1.08;;;0.50;;
24650;SDS011;12783;48.824;8.662;2023-09-18T07:23:40;2.50;;;0.70;;
24650;SDS011;12783;48.824;8.662;2023-09-18T07:26:07;3.85;;;0.70;;
24650;SDS011;12783;48.824;8.662;2023-09-18T07:28:34;4.05;;;0.80;;
24650;SDS011;12783;48.824;8.662;2023-09-18T07:31:07;4.40;;;0.50;;
24650;SDS011;12783;48.824;8.662;2023-09-18T07:33:35;1.92;;;0.75;;
24650;SDS011;12783;48.824;8.662;2023-09-18T07:36:02;2.33;;;0.60;;
24650;SDS011;12783;48.824;8.662;2023-09-18T07:38:30;3.20;;;0.55;;
24650;SDS011;12783;48.824;8.662;2023-09-18T07:40:57;1.38;;;0.50;;
24650;SDS011;12783;48.824;8.662;2023-09-18T07:43:24;1.95;;;0.47;;
24650;SDS011;12783;48.824;8.662;2023-09-18T07:45:52;2.17;;;0.60;;
24650;SDS011;12783;48.824;8.662;2023-09-18T07:48:21;0.85;;;0.45;;
24650;SDS011;12783;48.824;8.662;2023-09-18T07:50:49;2.05;;;0.60;;
24650;SDS011;12783;48.824;8.662;2023-09-18T07:53:17;0.95;;;0.40;;
24650;SDS011;12783;48.824;8.662;2023-09-18T07:55:45;1.48;;;0.30;;
24650;SDS011;12783;48.824;8.662;2023-09-18T07:58:12;1.13;;;0.65;;
24650;SDS011;12783;48.824;8.662;2023-09-18T08:00:40;0.68;;;0.50;;
24650;SDS011;12783;48.824;8.662;2023-09-18T08:03:06;2.03;;;0.65;;
24650;SDS011;12783;48.824;8.662;2023-09-18T08:05:33;1.42;;;0.60;;
24650;SDS011;12783;48.824;8.662;2023-09-18T08:08:00;4.80;;;0.60;;
24650;SDS011;12783;48.824;8.662;2023-09-18T08:10:31;3.30;;;0.50;;
24650;SDS011;12783;48.824;8.662;2023-09-18T08:12:58;1.13;;;0.50;;
24650;SDS011;12783;48.824;8.662;2023-09-18T08:15:25;2.40;;;0.60;;
24650;SDS011;12783;48.824;8.662;2023-09-18T08:17:52;1.33;;;0.40;;
24650;SDS011;12783;48.824;8.662;2023-09-18T08:20:19;1.90;;;0.47;;
24650;SDS011;12783;48.824;8.662;2023-09-18T08:22:46;2.58;;;0.57;;
24650;SDS011;12783;48.824;8.662;2023-09-18T08:25:14;1.80;;;0.65;;
24650;SDS011;12783;48.824;8.662;2023-09-18T08:27:41;2.65;;;0.73;;
24650;SDS011;12783;48.824;8.662;2023-09-18T08:30:11;0.82;;;0.60;;
24650;SDS011;12783;48.824;8.662;2023-09-18T08:32:39;1.13;;;0.63;;
24650;SDS011;12783;48.824;8.662;2023-09-18T08:35:08;5.03;;;0.90;;
24650;SDS011;12783;48.824;8.662;2023-09-18T08:37:36;2.60;;;0.80;;
24650;SDS011;12783;48.824;8.662;2023-09-18T08:40:02;2.63;;;0.90;;
24650;SDS011;12783;48.824;8.662;2023-09-18T08:42:55;5.43;;;1.10;;
24650;SDS011;12783;48.824;8.662;2023-09-18T08:45:23;2.30;;;0.68;;
24650;SDS011;12783;48.824;8.662;2023-09-18T08:48:00;4.10;;;0.80;;
24650;SDS011;12783;48.824;8.662;2023-09-18T08:50:28;4.97;;;0.70;;
24650;SDS011;12783;48.824;8.662;2023-09-18T08:52:55;3.83;;;0.98;;
24650;SDS011;12783;48.824;8.662;2023-09-18T08:55:23;4.97;;;0.98;;
24650;SDS011;12783;48.824;8.662;2023-09-18T08:57:50;2.85;;;0.80;;
24650;SDS011;12783;48.824;8.662;2023-09-18T09:00:20;2.80;;;0.98;;
24650;SDS011;12783;48.824;8.662;2023-09-18T09:02:47;3.53;;;0.70;;
24650;SDS011;12783;48.824;8.662;2023-09-18T09:05:17;4.07;;;1.00;;
24650;SDS011;12783;48.824;8.662;2023-09-18T09:07:44;2.60;;;0.85;;
24650;SDS011;12783;48.824;8.662;2023-09-18T09:10:11;5.90;;;0.80;;
24650;SDS011;12783;48.824;8.662;2023-09-18T09:12:57;1.98;;;0.73;;
24650;SDS011;12783;48.824;8.662;2023-09-18T09:15:34;1.80;;;0.68;;
24650;SDS011;12783;48.824;8.662;2023-09-18T09:18:13;1.92;;;0.60;;
24650;SDS011;12783;48.824;8.662;2023-09-18T09:20:53;1.45;;;0.80;;
24650;SDS011;12783;48.824;8.662;2023-09-18T09:23:26;4.93;;;1.10;;
24650;SDS011;12783;48.824;8.662;2023-09-18T09:26:12;2.53;;;0.73;;
24650;SDS011;12783;48.824;8.662;2023-09-18T09:28:45;4.18;;;1.00;;
24650;SDS011;12783;48.824;8.662;2023-09-18T09:31:22;3.05;;;0.63;;
24650;SDS011;12783;48.824;8.662;2023-09-18T09:33:54;3.42;;;0.90;;
24650;SDS011;12783;48.824;8.662;2023-09-18T09:36:22;3.78;;;0.93;;
24650;SDS011;12783;48.824;8.662;2023-09-18T09:38:56;2.35;;;0.80;;
24650;SDS011;12783;48.824;8.662;2023-09-18T09:41:25;5.15;;;0.80;;
24650;SDS011;12783;48.824;8.662;2023-09-18T09:43:54;2.42;;;0.80;;
24650;SDS011;12783;48.824;8.662;2023-09-18T09:46:22;2.72;;;0.73;;
24650;SDS011;12783;48.824;8.662;2023-09-18T09:49:01;1.52;;;0.52;;
24650;SDS011;12783;48.824;8.662;2023-09-18T09:51:32;4.82;;;0.88;;
24650;SDS011;12783;48.824;8.662;2023-09-18T09:54:01;2.40;;;0.70;;
24650;SDS011;12783;48.824;8.662;2023-09-18T09:59:10;3.78;;;0.77;;
24650;SDS011;12783;48.824;8.662;2023-09-18T10:01:40;2.88;;;0.80;;
24650;SDS011;12783;48.824;8.662;2023-09-18T10:04:14;2.45;;;0.55;;
24650;SDS011;12783;48.824;8.662;2023-09-18T10:06:44;3.17;;;0.73;;
24650;SDS011;12783;48.824;8.662;2023-09-18T10:09:20;1.55;;;0.82;;
24650;SDS011;12783;48.824;8.662;2023-09-18T10:11:49;3.15;;;0.70;;
24650;SDS011;12783;48.824;8.662;2023-09-18T10:14:20;3.35;;;0.93;;
24650;SDS011;12783;48.824;8.662;2023-09-18T10:17:12;1.65;;;0.77;;
24650;SDS011;12783;48.824;8.662;2023-09-18T10:22:30;3.22;;;0.73;;
24650;SDS011;12783;48.824;8.662;2023-09-18T10:25:10;2.63;;;0.70;;
24650;SDS011;12783;48.824;8.662;2023-09-18T10:27:45;7.20;;;0.70;;
24650;SDS011;12783;48.824;8.662;2023-09-18T10:30:15;1.67;;;0.70;;
24650;SDS011;12783;48.824;8.662;2023-09-18T10:32:45;3.50;;;0.80;;
24650;SDS011;12783;48.824;8.662;2023-09-18T10:35:13;2.67;;;0.57;;
24650;SDS011;12783;48.824;8.662;2023-09-18T10:37:43;2.58;;;0.73;;
24650;SDS011;12783;48.824;8.662;2023-09-18T10:40:14;2.95;;;0.63;;
24650;SDS011;12783;48.824;8.662;2023-09-18T10:42:43;2.83;;;0.80;;
24650;SDS011;12783;48.824;8.662;2023-09-18T10:45:12;1.00;;;0.70;;
24650;SDS011;12783;48.824;8.662;2023-09-18T10:47:43;0.60;;;0.28;;
24650;SDS011;12783;48.824;8.662;2023-09-18T10:50:15;1.27;;;0.60;;
24650;SDS011;12783;48.824;8.662;2023-09-18T10:52:53;1.27;;;0.60;;
24650;SDS011;12783;48.824;8.662;2023-09-18T10:55:24;1.45;;;0.70;;
24650;SDS011;12783;48.824;8.662;2023-09-18T10:57:53;0.82;;;0.60;;
24650;SDS011;12783;48.824;8.662;2023-09-18T11:00:26;0.47;;;0.45;;
24650;SDS011;12783;48.824;8.662;2023-09-18T11:03:15;1.45;;;0.60;;
24650;SDS011;12783;48.824;8.662;2023-09-18T11:05:45;1.02;;;0.57;;
24650;SDS011;12783;48.824;8.662;2023-09-18T11:08:30;0.63;;;0.60;;
24650;SDS011;12783;48.824;8.662;2023-09-18T11:11:05;3.25;;;0.80;;
24650;SDS011;12783;48.824;8.662;2023-09-18T11:13:52;1.88;;;0.50;;
24650;SDS011;12783;48.824;8.662;2023-09-18T11:18:54;3.38;;;0.90;;
24650;SDS011;12783;48.824;8.662;2023-09-18T11:21:40;0.65;;;0.40;;
24650;SDS011;12783;48.824;8.662;2023-09-18T11:24:07;0.82;;;0.60;;
24650;SDS011;12783;48.824;8.662;2023-09-18T11:26:44;1.02;;;0.60;;
24650;SDS011;12783;48.824;8.662;2023-09-18T11:29:14;1.98;;;0.50;;
24650;SDS011;12783;48.824;8.662;2023-09-18T11:34:24;1.63;;;0.82;;
24650;SDS011;12783;48.824;8.662;2023-09-18T11:36:55;3.25;;;0.65;;
24650;SDS011;12783;48.824;8.662;2023-09-18T11:39:56;2.08;;;0.60;;
24650;SDS011;12783;48.824;8.662;2023-09-18T11:42:20;2.15;;;0.60;;
24650;SDS011;12783;48.824;8.662;2023-09-18T11:44:49;1.52;;;0.60;;
24650;SDS011;12783;48.824;8.662;2023-09-18T11:47:17;2.15;;;0.80;;
24650;SDS011;12783;48.824;8.662;2023-09-18T11:49:59;2.15;;;0.60;;
24650;SDS011;12783;48.824;8.662;2023-09-18T11:52:28;2.50;;;0.80;;
24650;SDS011;12783;48.824;8.662;2023-09-18T11:54:58;1.20;;;0.55;;
24650;SDS011;12783;48.824;8.662;2023-09-18T11:57:27;1.75;;;0.80;;
24650;SDS011;12783;48.824;8.662;2023-09-18T11:59:56;3.50;;;0.93;;
24650;SDS011;12783;48.824;8.662;2023-09-18T12:02:26;0.98;;;0.70;;
24650;SDS011;12783;48.824;8.662;2023-09-18T12:05:13;2.50;;;0.73;;
24650;SDS011;12783;48.824;8.662;2023-09-18T12:07:42;1.38;;;0.60;;
24650;SDS011;12783;48.824;8.662;2023-09-18T12:10:14;2.13;;;0.70;;
24650;SDS011;12783;48.824;8.662;2023-09-18T12:12:43;3.85;;;0.63;;
24650;SDS011;12783;48.824;8.662;2023-09-18T12:15:11;2.92;;;0.98;;
24650;SDS011;12783;48.824;8.662;2023-09-18T12:17:40;1.33;;;0.63;;
24650;SDS011;12783;48.824;8.662;2023-09-18T12:20:14;2.10;;;0.60;;
24650;SDS011;12783;48.824;8.662;2023-09-18T12:22:49;1.13;;;0.63;;
24650;SDS011;12783;48.824;8.662;2023-09-18T12:25:17;1.45;;;0.70;;
24650;SDS011;12783;48.824;8.662;2023-09-18T12:27:53;4.18;;;1.00;;
24650;SDS011;12783;48.824;8.662;2023-09-18T12:30:21;1.38;;;0.80;;
24650;SDS011;12783;48.824;8.662;2023-09-18T12:32:50;3.35;;;0.90;;
24650;SDS011;12783;48.824;8.662;2023-09-18T12:35:18;1.58;;;0.68;;
24650;SDS011;12783;48.824;8.662;2023-09-18T12:37:45;0.68;;;0.68;;
24650;SDS011;12783;48.824;8.662;2023-09-18T12:40:31;1.42;;;1.00;;
24650;SDS011;12783;48.824;8.662;2023-09-18T12:43:00;1.55;;;0.77;;
24650;SDS011;12783;48.824;8.662;2023-09-18T12:45:29;3.67;;;0.65;;
24650;SDS011;12783;48.824;8.662;2023-09-18T12:47:57;4.50;;;0.85;;
24650;SDS011;12783;48.824;8.662;2023-09-18T12:50:25;3.80;;;0.90;;
24650;SDS011;12783;48.824;8.662;2023-09-18T12:52:52;1.13;;;0.90;;
24650;SDS011;12783;48.824;8.662;2023-09-18T12:55:20;1.85;;;0.70;;
24650;SDS011;12783;48.824;8.662;2023-09-18T12:57:50;1.70;;;0.80;;
24650;SDS011;12783;48.824;8.662;2023-09-18T13:00:19;2.42;;;0.63;;
24650;SDS011;12783;48.824;8.662;2023-09-18T13:02:49;2.00;;;0.80;;
24650;SDS011;12783;48.824;8.662;2023-09-18T13:05:21;1.60;;;0.68;;
24650;SDS011;12783;48.824;8.662;2023-09-18T13:07:52;1.10;;;0.70;;
24650;SDS011;12783;48.824;8.662;2023-09-18T13:10:20;1.42;;;0.70;;
24650;SDS011;12783;48.824;8.662;2023-09-18T13:12:54;2.28;;;0.75;;
24650;SDS011;12783;48.824;8.662;2023-09-18T13:15:26;1.52;;;0.70;;
24650;SDS011;12783;48.824;8.662;2023-09-18T13:18:08;3.50;;;0.70;;
24650;SDS011;12783;48.824;8.662;2023-09-18T13:20:37;2.28;;;0.90;;
24650;SDS011;12783;48.824;8.662;2023-09-18T13:23:06;2.95;;;0.80;;
24650;SDS011;12783;48.824;8.662;2023-09-18T13:25:35;2.72;;;1.00;;
24650;SDS011;12783;48.824;8.662;2023-09-18T13:28:05;1.35;;;0.82;;
24650;SDS011;12783;48.824;8.662;2023-09-18T13:30:38;1.48;;;0.80;;
24650;SDS011;12783;48.824;8.662;2023-09-18T13:33:13;1.38;;;0.75;;
24650;SDS011;12783;48.824;8.662;2023-09-18T13:38:12;1.77;;;1.00;;
24650;SDS011;12783;48.824;8.662;2023-09-18T13:40:44;3.13;;;0.95;;
24650;SDS011;12783;48.824;8.662;2023-09-18T13:43:14;1.63;;;0.70;;
24650;SDS011;12783;48.824;8.662;2023-09-18T13:45:45;4.78;;;1.25;;
24650;SDS011;12783;48.824;8.662;2023-09-18T13:48:12;3.17;;;0.82;;
24650;SDS011;12783;48.824;8.662;2023-09-18T13:50:39;4.93;;;0.93;;
24650;SDS011;12783;48.824;8.662;2023-09-18T13:53:06;1.63;;;0.73;;
24650;SDS011;12783;48.824;8.662;2023-09-18T13:55:33;2.17;;;0.95;;
24650;SDS011;12783;48.824;8.662;2023-09-18T13:58:01;2.85;;;0.70;;
24650;SDS011;12783;48.824;8.662;2023-09-18T14:00:31;1.80;;;0.80;;
24650;SDS011;12783;48.824;8.662;2023-09-18T14:02:59;4.28;;;1.10;;
24650;SDS011;12783;48.824;8.662;2023-09-18T14:05:26;3.05;;;0.70;;
24650;SDS011;12783;48.824;8.662;2023-09-18T14:07:55;5.68;;;1.00;;
24650;SDS011;12783;48.824;8.662;2023-09-18T14:10:26;3.58;;;0.82;;
24650;SDS011;12783;48.824;8.662;2023-09-18T14:12:53;2.20;;;0.82;;
24650;SDS011;12783;48.824;8.662;2023-09-18T14:15:20;2.05;;;0.85;;
24650;SDS011;12783;48.824;8.662;2023-09-18T14:17:47;3.28;;;0.73;;
24650;SDS011;12783;48.824;8.662;2023-09-18T14:20:15;3.60;;;0.90;;
24650;SDS011;12783;48.824;8.662;2023-09-18T14:22:45;3.95;;;1.20;;
24650;SDS011;12783;48.824;8.662;2023-09-18T14:25:16;2.17;;;0.93;;
24650;SDS011;12783;48.824;8.662;2023-09-18T14:27:46;2.53;;;0.85;;
24650;SDS011;12783;48.824;8.662;2023-09-18T14:30:13;1.88;;;0.90;;
24650;SDS011;12783;48.824;8.662;2023-09-18T14:32:40;5.53;;;1.00;;
24650;SDS011;12783;48.824;8.662;2023-09-18T14:35:08;1.95;;;0.90;;
24650;SDS011;12783;48.824;8.662;2023-09-18T14:37:36;2.95;;;0.90;;
24650;SDS011;12783;48.824;8.662;2023-09-18T14:40:03;1.88;;;1.00;;
24650;SDS011;12783;48.824;8.662;2023-09-18T14:42:31;4.15;;;1.05;;
24650;SDS011;12783;48.824;8.662;2023-09-18T14:44:59;1.00;;;0.65;;
24650;SDS011;12783;48.824;8.662;2023-09-18T14:47:28;1.95;;;0.77;;
24650;SDS011;12783;48.824;8.662;2023-09-18T14:49:55;1.52;;;0.68;;
24650;SDS011;12783;48.824;8.662;2023-09-18T14:52:24;3.03;;;0.90;;
24650;SDS011;12783;48.824;8.662;2023-09-18T14:54:52;2.08;;;1.02;;
24650;SDS011;12783;48.824;8.662;2023-09-18T14:57:19;2.15;;;0.80;;
24650;SDS011;12783;48.824;8.662;2023-09-18T14:59:46;3.47;;;1.15;;
24650;SDS011;12783;48.824;8.662;2023-09-18T15:02:16;2.05;;;0.70;;
24650;SDS011;12783;48.824;8.662;2023-09-18T15:04:44;1.27;;;0.80;;
24650;SDS011;12783;48.824;8.662;2023-09-18T15:07:12;3.90;;;1.00;;
24650;SDS011;12783;48.824;8.662;2023-09-18T15:09:40;1.15;;;0.55;;
24650;SDS011;12783;48.824;8.662;2023-09-18T15:12:07;1.92;;;0.85;;
24650;SDS011;12783;48.824;8.662;2023-09-18T15:14:34;2.15;;;0.80;;